Terminal Aerodrome Forecast
Issued by NWS

Home | Current Version | Previous Version | Text Only | Print | Product List | Glossary On
Versions: 1 2 3 4 5 6 7 8 9 10 11 12 13 14 15 16 17 18 19 20 21
000
FTUS46 KSEW 161742
TAFBFI
TAF
KBFI 161742Z 1618/1718 21006KT P6SM FEW050 BKN100
     FM170000 29007KT P6SM SCT050 BKN100
     FM170300 VRB05KT P6SM BKN050
     FM170600 VRB03KT P6SM FEW025 BKN050
     FM170900 VRB03KT P6SM OVC015=

USA.gov is the U.S. government's official web portal to all federal, state and local government web resources and services.